Time;durP1;ratioP1;P1;durP2;ratioP2;P2;SDS_P1;SDS_P2;PMS_P1;PMS_P2;Temp;Humidity;BMP_temperature;BMP_pressure;BME280_temperature;BME280_humidity;BME280_pressure;Samples;Min_cycle;Max_cycle;Signal;HPM_P1;HPM_P2
2020/12/26 00:01:08;;;;;;;8.20;3.67;;;4.30;99.90;;;;;;5019813;28;20475;-72
2020/12/26 00:03:35;;;;;;;4.60;4.20;;;4.30;99.90;;;;;;5014053;28;20471;-71
2020/12/26 00:06:04;;;;;;;5.03;4.53;;;4.20;99.90;;;;;;5017014;28;20559;-73
2020/12/26 00:08:32;;;;;;;5.43;3.10;;;4.10;99.90;;;;;;5018313;28;20462;-70
2020/12/26 00:10:59;;;;;;;7.33;3.40;;;4.20;99.90;;;;;;5018420;28;20468;-71
2020/12/26 00:13:26;;;;;;;4.33;3.50;;;4.30;99.90;;;;;;5013453;28;20471;-71
2020/12/26 00:15:53;;;;;;;3.37;3.10;;;4.20;99.90;;;;;;5020585;28;20434;-70
2020/12/26 00:18:20;;;;;;;7.57;4.20;;;4.20;99.90;;;;;;5017517;28;20539;-70
2020/12/26 00:20:47;;;;;;;6.73;4.70;;;4.10;99.90;;;;;;5015860;28;20819;-69
2020/12/26 00:23:13;;;;;;;4.70;4.30;;;4.10;99.90;;;;;;5022645;28;20561;-72
2020/12/26 00:25:42;;;;;;;3.50;3.00;;;4.10;99.90;;;;;;5015273;28;20459;-72
2020/12/26 00:28:09;;;;;;;4.73;4.30;;;4.10;99.90;;;;;;5020288;28;20587;-72
2020/12/26 00:30:37;;;;;;;8.33;3.97;;;4.10;99.90;;;;;;5017982;28;20458;-72
2020/12/26 00:33:03;;;;;;;5.67;5.00;;;4.10;99.90;;;;;;5028067;28;20541;-72
2020/12/26 00:35:30;;;;;;;4.23;3.77;;;4.10;99.90;;;;;;5012416;28;20461;-70
2020/12/26 00:37:56;;;;;;;3.77;3.37;;;4.10;99.90;;;;;;5016707;28;20895;-72
2020/12/26 00:40:23;;;;;;;5.23;4.67;;;4.20;99.90;;;;;;5017939;28;20622;-70
2020/12/26 00:42:50;;;;;;;4.47;3.93;;;4.20;99.90;;;;;;5019087;28;20516;-70
2020/12/26 00:45:19;;;;;;;10.27;4.60;;;4.10;99.90;;;;;;5019184;28;20559;-72
2020/12/26 00:47:47;;;;;;;7.20;4.93;;;4.10;99.90;;;;;;5001579;28;20452;-70
2020/12/26 00:50:14;;;;;;;9.70;4.70;;;4.10;99.90;;;;;;5022470;28;20448;-72
2020/12/26 00:52:41;;;;;;;4.33;4.03;;;4.10;99.90;;;;;;5020186;28;20484;-72
2020/12/26 00:55:07;;;;;;;6.80;2.57;;;4.10;99.90;;;;;;5019061;28;20490;-70
2020/12/26 00:57:34;;;;;;;6.93;3.43;;;4.00;99.90;;;;;;5019075;28;20452;-70
2020/12/26 01:00:01;;;;;;;13.13;4.60;;;4.00;99.90;;;;;;5021026;28;20455;-70
2020/12/26 01:02:27;;;;;;;10.33;4.57;;;3.90;99.90;;;;;;5017924;28;20579;-72
2020/12/26 01:04:55;;;;;;;5.63;5.10;;;4.00;99.90;;;;;;5016838;28;20580;-71
2020/12/26 01:07:21;;;;;;;1.40;0.90;;;4.10;99.90;;;;;;5019488;28;20965;-70
2020/12/26 01:09:48;;;;;;;5.70;4.07;;;4.10;99.90;;;;;;5022294;28;20539;-71
2020/12/26 01:12:14;;;;;;;13.63;6.53;;;4.00;99.90;;;;;;5021718;28;20594;-72
2020/12/26 01:14:42;;;;;;;7.90;3.40;;;4.00;99.90;;;;;;5015209;28;20439;-72
2020/12/26 01:17:09;;;;;;;5.70;3.03;;;4.00;99.90;;;;;;5016399;28;20880;-71
2020/12/26 01:19:36;;;;;;;6.53;4.00;;;4.10;99.90;;;;;;5022348;28;20462;-71
2020/12/26 01:22:03;;;;;;;7.50;5.23;;;4.00;99.90;;;;;;5025043;28;20550;-71
2020/12/26 01:24:30;;;;;;;6.80;4.90;;;4.10;99.90;;;;;;5020131;28;20539;-73
2020/12/26 01:26:56;;;;;;;15.93;8.23;;;4.10;99.90;;;;;;5026551;28;21006;-70
2020/12/26 01:29:23;;;;;;;5.10;4.57;;;4.10;99.90;;;;;;5017825;28;20435;-70
2020/12/26 01:31:50;;;;;;;13.47;5.77;;;4.20;99.90;;;;;;5021599;28;20491;-73
2020/12/26 01:34:17;;;;;;;6.30;3.97;;;4.20;99.90;;;;;;5021615;28;20526;-70
2020/12/26 01:36:47;;;;;;;15.37;9.03;;;4.30;99.90;;;;;;5017080;28;20865;-71
2020/12/26 01:39:15;;;;;;;10.37;7.83;;;4.20;99.90;;;;;;5019210;28;20555;-71
2020/12/26 01:41:41;;;;;;;5.70;4.73;;;4.30;99.90;;;;;;5021061;28;20522;-73
2020/12/26 01:44:08;;;;;;;8.57;4.70;;;4.20;99.90;;;;;;5025087;28;20514;-71
2020/12/26 01:46:35;;;;;;;7.70;6.90;;;4.20;99.90;;;;;;5002295;28;20525;-72
2020/12/26 01:49:01;;;;;;;7.47;6.73;;;4.30;99.90;;;;;;4996503;28;20556;-72
2020/12/26 01:51:31;;;;;;;4.23;3.83;;;4.20;99.90;;;;;;5015051;28;20489;-73
2020/12/26 01:53:57;;;;;;;5.00;4.47;;;4.10;99.90;;;;;;5021322;28;20458;-71
2020/12/26 01:56:26;;;;;;;4.97;4.17;;;4.20;99.90;;;;;;5016383;28;20543;-72
2020/12/26 01:58:53;;;;;;;6.27;5.47;;;4.20;99.90;;;;;;5020527;28;21045;-73
2020/12/26 02:01:31;;;;;;;5.50;4.83;;;4.20;99.90;;;;;;5016994;28;20486;-72
2020/12/26 02:03:58;;;;;;;4.10;3.70;;;4.20;99.90;;;;;;5014830;28;20505;-72
2020/12/26 02:06:26;;;;;;;3.67;3.37;;;4.20;99.90;;;;;;5023062;28;20455;-71
2020/12/26 02:08:53;;;;;;;6.20;5.13;;;4.20;99.90;;;;;;5019625;28;20455;-71
2020/12/26 02:11:19;;;;;;;5.83;4.73;;;4.20;99.90;;;;;;5015373;28;20566;-72
2020/12/26 02:13:47;;;;;;;4.33;3.93;;;4.20;99.90;;;;;;5015911;28;20526;-71
2020/12/26 02:16:17;;;;;;;8.20;7.13;;;4.20;99.90;;;;;;5019366;28;20534;-72
2020/12/26 02:18:43;;;;;;;10.63;6.57;;;4.10;99.90;;;;;;4995369;28;20464;-71
2020/12/26 02:21:10;;;;;;;8.30;6.10;;;4.10;99.90;;;;;;5015774;28;20540;-72
2020/12/26 02:23:43;;;;;;;7.57;4.17;;;4.10;99.90;;;;;;5018752;28;20526;-73
2020/12/26 02:26:10;;;;;;;11.23;6.20;;;4.20;99.90;;;;;;5016883;28;20512;-71
2020/12/26 02:28:36;;;;;;;8.33;6.73;;;4.20;99.90;;;;;;5020403;28;20460;-71
2020/12/26 02:31:03;;;;;;;4.83;3.10;;;4.10;99.90;;;;;;4999217;28;20651;-72
2020/12/26 02:33:32;;;;;;;23.53;7.30;;;4.10;99.90;;;;;;5024043;28;20854;-71
2020/12/26 02:35:59;;;;;;;5.80;3.40;;;4.10;99.90;;;;;;5019592;28;20775;-72
2020/12/26 02:38:26;;;;;;;11.93;4.80;;;4.10;99.90;;;;;;5018249;28;20530;-72
2020/12/26 02:40:54;;;;;;;6.30;5.70;;;4.10;99.90;;;;;;5018794;28;20902;-72
2020/12/26 02:43:22;;;;;;;5.17;4.50;;;4.10;99.90;;;;;;5019340;28;20546;-72
2020/12/26 02:45:49;;;;;;;6.77;4.87;;;4.20;99.90;;;;;;5015431;28;20996;-72
2020/12/26 02:48:16;;;;;;;6.30;5.00;;;4.20;99.90;;;;;;5020341;28;20485;-71
2020/12/26 02:50:43;;;;;;;4.70;4.17;;;4.20;99.90;;;;;;5018845;28;20888;-72
2020/12/26 02:53:10;;;;;;;10.03;5.70;;;4.20;99.90;;;;;;5024686;28;20556;-71
2020/12/26 02:55:36;;;;;;;4.77;3.77;;;4.10;99.90;;;;;;5019860;28;21387;-72
2020/12/26 02:58:07;;;;;;;11.93;4.73;;;4.20;99.90;;;;;;5017869;28;20485;-72
2020/12/26 03:00:33;;;;;;;6.00;4.40;;;4.10;99.90;;;;;;5017932;28;20911;-70
2020/12/26 03:03:00;;;;;;;4.30;3.90;;;4.00;99.90;;;;;;5017302;28;20889;-72
2020/12/26 03:05:28;;;;;;;6.17;4.53;;;4.10;99.90;;;;;;5016090;28;20427;-72
2020/12/26 03:07:54;;;;;;;10.37;5.00;;;3.90;99.90;;;;;;5018689;28;20461;-72
2020/12/26 03:10:21;;;;;;;5.03;3.40;;;4.00;99.90;;;;;;5017396;28;20530;-70
2020/12/26 03:12:50;;;;;;;7.60;4.17;;;4.00;99.90;;;;;;5014753;28;20476;-72
2020/12/26 03:15:18;;;;;;;5.50;5.00;;;4.00;99.90;;;;;;5014296;28;20438;-72
2020/12/26 03:17:45;;;;;;;4.20;3.53;;;4.00;99.90;;;;;;5013084;28;20439;-70
2020/12/26 03:20:11;;;;;;;10.40;6.47;;;3.90;99.90;;;;;;4997652;28;20562;-70
2020/12/26 03:22:38;;;;;;;10.17;6.83;;;3.90;99.90;;;;;;5012026;28;20572;-72
2020/12/26 03:25:05;;;;;;;6.53;5.00;;;3.90;99.90;;;;;;5000747;28;20519;-72
2020/12/26 03:27:32;;;;;;;10.50;6.83;;;3.90;99.90;;;;;;5011596;28;20944;-71
2020/12/26 03:29:58;;;;;;;11.27;6.53;;;4.00;99.90;;;;;;5007798;28;20834;-71
2020/12/26 03:32:26;;;;;;;6.17;4.67;;;4.00;99.90;;;;;;5015604;28;20564;-71
2020/12/26 03:34:52;;;;;;;5.17;4.43;;;3.90;99.90;;;;;;5020203;28;20491;-71
2020/12/26 03:37:19;;;;;;;4.40;4.00;;;3.90;99.90;;;;;;5013917;28;20442;-71
2020/12/26 03:39:45;;;;;;;8.03;5.40;;;3.90;99.90;;;;;;5014622;28;20504;-71
2020/12/26 03:42:13;;;;;;;2.33;2.17;;;3.90;99.90;;;;;;5024169;28;20514;-70
2020/12/26 03:44:40;;;;;;;5.13;4.73;;;3.90;99.90;;;;;;5018939;28;20464;-72
2020/12/26 03:47:09;;;;;;;8.30;5.07;;;3.90;99.90;;;;;;5021443;28;20510;-71
2020/12/26 03:49:37;;;;;;;9.60;4.33;;;4.00;99.90;;;;;;5017760;28;20569;-72
2020/12/26 03:52:05;;;;;;;3.30;3.07;;;4.00;99.90;;;;;;5019505;28;20565;-72
2020/12/26 03:54:31;;;;;;;7.30;4.00;;;4.00;99.90;;;;;;5017066;28;20840;-72
2020/12/26 03:56:58;;;;;;;10.60;5.57;;;4.00;99.90;;;;;;5018687;28;20470;-71
2020/12/26 03:59:25;;;;;;;7.57;5.77;;;4.00;99.90;;;;;;5023896;28;21057;-72
2020/12/26 04:01:51;;;;;;;7.27;4.37;;;4.00;99.90;;;;;;5022751;28;20459;-72
2020/12/26 04:04:18;;;;;;;4.97;4.53;;;4.00;99.90;;;;;;5018052;28;20555;-70
2020/12/26 04:06:46;;;;;;;3.57;3.13;;;4.10;99.90;;;;;;5018090;28;20518;-72
2020/12/26 04:09:13;;;;;;;5.77;4.30;;;4.00;99.90;;;;;;5017567;28;20463;-72
2020/12/26 04:11:40;;;;;;;8.93;4.23;;;4.00;99.90;;;;;;5019459;28;20455;-71
2020/12/26 04:14:06;;;;;;;5.40;3.80;;;3.90;99.90;;;;;;5015655;28;21302;-70
2020/12/26 04:16:33;;;;;;;22.53;4.40;;;3.90;99.90;;;;;;5017147;28;20442;-72
2020/12/26 04:19:00;;;;;;;9.20;4.10;;;3.90;99.90;;;;;;5024341;28;20952;-72
2020/12/26 04:21:27;;;;;;;10.80;4.87;;;3.80;99.90;;;;;;5021872;28;20486;-70
2020/12/26 04:23:54;;;;;;;4.47;3.90;;;3.90;99.90;;;;;;5020328;28;20553;-70
2020/12/26 04:26:22;;;;;;;7.33;5.37;;;3.90;99.90;;;;;;5015301;28;20435;-72
2020/12/26 04:28:49;;;;;;;5.90;4.50;;;3.90;99.90;;;;;;5020727;28;20471;-69
2020/12/26 04:31:15;;;;;;;6.70;5.00;;;3.90;99.90;;;;;;5018474;28;20987;-72
2020/12/26 04:33:42;;;;;;;5.93;4.27;;;3.90;99.90;;;;;;5020147;28;20467;-70
2020/12/26 04:36:09;;;;;;;7.67;6.07;;;3.90;99.90;;;;;;5021227;28;21007;-72
2020/12/26 04:38:35;;;;;;;1.60;1.50;;;3.90;99.90;;;;;;5013088;28;21281;-72
2020/12/26 04:41:04;;;;;;;7.77;3.97;;;4.00;99.90;;;;;;5023797;28;20501;-69
2020/12/26 04:43:31;;;;;;;8.90;5.30;;;4.00;99.90;;;;;;5021708;28;20901;-72
2020/12/26 04:45:58;;;;;;;4.70;4.30;;;4.00;99.90;;;;;;5017634;28;21032;-72
2020/12/26 04:48:27;;;;;;;6.97;5.77;;;4.00;99.90;;;;;;5021757;28;20465;-70
2020/12/26 04:50:57;;;;;;;9.27;6.57;;;4.00;99.90;;;;;;5024033;28;20998;-70
2020/12/26 04:53:31;;;;;;;6.13;5.30;;;4.10;99.90;;;;;;5018647;28;20929;-72
2020/12/26 04:56:00;;;;;;;8.10;5.20;;;4.00;99.90;;;;;;5021615;28;20602;-72
2020/12/26 04:58:29;;;;;;;6.57;5.97;;;3.90;99.90;;;;;;5012547;28;20550;-72
2020/12/26 05:00:56;;;;;;;5.03;4.13;;;3.90;99.90;;;;;;5019021;28;21004;-71
2020/12/26 05:03:26;;;;;;;10.60;5.10;;;3.90;99.90;;;;;;5017483;28;20515;-71
2020/12/26 05:06:04;;;;;;;7.70;4.63;;;4.00;99.90;;;;;;5014900;28;20456;-70
2020/12/26 05:08:31;;;;;;;10.37;4.27;;;4.00;99.90;;;;;;5019247;28;20466;-71
2020/12/26 05:10:59;;;;;;;6.00;4.80;;;4.00;99.90;;;;;;5025250;28;20958;-71
2020/12/26 05:13:25;;;;;;;4.27;3.90;;;4.00;99.90;;;;;;5025061;28;20461;-72
2020/12/26 05:15:57;;;;;;;7.83;5.10;;;4.00;99.90;;;;;;5015540;28;20492;-70
2020/12/26 05:18:24;;;;;;;19.10;6.50;;;4.00;99.90;;;;;;5014772;28;20436;-71
2020/12/26 05:20:50;;;;;;;5.93;5.43;;;4.10;99.90;;;;;;5014766;28;20622;-70
2020/12/26 05:23:18;;;;;;;6.20;5.57;;;4.10;99.90;;;;;;5011545;28;20635;-69
2020/12/26 05:25:46;;;;;;;3.33;2.80;;;4.10;99.90;;;;;;5015494;28;20519;-71
2020/12/26 05:28:15;;;;;;;7.20;4.30;;;4.20;99.90;;;;;;5015329;28;23746;-72
2020/12/26 05:30:42;;;;;;;9.03;5.20;;;4.00;99.90;;;;;;5025225;28;20955;-72
2020/12/26 05:33:11;;;;;;;3.00;1.77;;;4.00;99.90;;;;;;5016523;28;20979;-69
2020/12/26 05:35:41;;;;;;;8.17;4.07;;;4.10;99.90;;;;;;5015198;28;20547;-72
2020/12/26 05:38:18;;;;;;;9.00;6.20;;;4.10;99.90;;;;;;5018385;28;20688;-69
2020/12/26 05:40:47;;;;;;;12.47;7.30;;;4.00;99.90;;;;;;5010555;28;20534;-71
2020/12/26 05:43:17;;;;;;;10.23;5.43;;;4.00;99.90;;;;;;5019238;28;20480;-69
2020/12/26 05:45:44;;;;;;;6.10;5.50;;;4.10;99.90;;;;;;5021108;28;20478;-71
2020/12/26 05:48:13;;;;;;;6.33;5.73;;;4.10;99.90;;;;;;5019489;28;20811;-69
2020/12/26 05:50:41;;;;;;;6.73;6.10;;;4.20;99.90;;;;;;5014852;28;20531;-72
2020/12/26 05:53:11;;;;;;;13.27;7.33;;;4.10;99.90;;;;;;5016821;28;20512;-71
2020/12/26 05:55:39;;;;;;;5.70;5.20;;;4.20;99.90;;;;;;5012894;28;20630;-70
2020/12/26 05:58:06;;;;;;;9.47;6.20;;;4.20;99.90;;;;;;5016420;28;20454;-71
2020/12/26 06:00:33;;;;;;;6.63;4.20;;;4.30;99.90;;;;;;5013606;28;20451;-70
2020/12/26 06:03:00;;;;;;;12.67;8.17;;;4.20;99.90;;;;;;5011458;28;20551;-69
2020/12/26 06:05:28;;;;;;;8.73;7.80;;;4.20;99.90;;;;;;5021609;28;20896;-69
2020/12/26 06:07:55;;;;;;;11.10;6.80;;;4.30;99.90;;;;;;5026101;28;20496;-71
2020/12/26 06:10:25;;;;;;;9.70;4.80;;;4.20;99.90;;;;;;5021447;28;20427;-70
2020/12/26 06:12:51;;;;;;;15.93;7.40;;;4.30;99.90;;;;;;5028421;28;20455;-72
2020/12/26 06:15:26;;;;;;;10.60;5.67;;;4.40;99.90;;;;;;5021324;28;20479;-72
2020/12/26 06:17:56;;;;;;;9.50;8.17;;;4.40;99.90;;;;;;5026075;28;20515;-71
2020/12/26 06:20:26;;;;;;;13.20;8.47;;;4.40;99.90;;;;;;5022438;28;20904;-72
2020/12/26 06:22:53;;;;;;;5.47;3.73;;;4.50;99.90;;;;;;5026164;28;20488;-72
2020/12/26 06:25:22;;;;;;;9.60;5.90;;;4.40;99.90;;;;;;5030687;28;20525;-72
2020/12/26 06:28:08;;;;;;;9.23;6.00;;;4.30;99.90;;;;;;5026158;28;20522;-72
2020/12/26 06:30:38;;;;;;;9.73;8.70;;;4.30;99.90;;;;;;5021046;28;20544;-72
2020/12/26 06:33:07;;;;;;;3.93;3.47;;;4.30;99.90;;;;;;5029488;28;20451;-71
2020/12/26 06:35:34;;;;;;;8.40;3.63;;;4.20;99.90;;;;;;5024608;28;20500;-71
2020/12/26 06:38:19;;;;;;;11.10;8.27;;;4.20;99.90;;;;;;5020234;28;20522;-72
2020/12/26 06:40:53;;;;;;;3.80;2.53;;;4.20;99.90;;;;;;5019415;28;20862;-71
2020/12/26 06:43:53;;;;;;;10.97;7.07;;;4.10;99.90;;;;;;5018418;28;20435;-72
2020/12/26 06:46:39;;;;;;;7.30;6.60;;;4.00;99.90;;;;;;4974083;28;20513;-72
2020/12/26 06:49:21;;;;;;;9.03;5.40;;;4.10;99.90;;;;;;4977402;28;20481;-71
2020/12/26 06:51:47;;;;;;;7.60;6.10;;;4.20;99.90;;;;;;5004805;28;20889;-70
2020/12/26 06:54:15;;;;;;;7.90;6.57;;;4.30;99.90;;;;;;5012945;28;20427;-72
2020/12/26 06:56:48;;;;;;;9.50;7.77;;;4.20;99.90;;;;;;5016335;28;20487;-69
2020/12/26 06:59:16;;;;;;;15.17;9.60;;;4.20;99.90;;;;;;5016506;28;20457;-72
2020/12/26 07:01:44;;;;;;;7.60;4.07;;;4.10;99.90;;;;;;5012446;28;20448;-70
2020/12/26 07:04:13;;;;;;;11.60;6.77;;;4.10;99.90;;;;;;5019061;28;21682;-71
2020/12/26 07:06:43;;;;;;;6.27;4.77;;;4.00;99.90;;;;;;5017292;28;20980;-71
2020/12/26 07:09:12;;;;;;;7.90;4.53;;;4.00;99.90;;;;;;5013715;28;20604;-73
2020/12/26 07:11:48;;;;;;;10.00;6.63;;;4.00;99.90;;;;;;5018705;28;20542;-72
2020/12/26 07:14:31;;;;;;;10.03;7.53;;;4.00;99.90;;;;;;5013990;28;20459;-72
2020/12/26 07:16:59;;;;;;;3.00;2.70;;;4.00;99.90;;;;;;5013778;28;20452;-71
2020/12/26 07:19:27;;;;;;;12.00;7.90;;;4.00;99.90;;;;;;5014996;28;20549;-72
2020/12/26 07:21:56;;;;;;;13.93;4.00;;;4.00;99.90;;;;;;5028345;28;21231;-72
2020/12/26 07:24:24;;;;;;;10.23;7.00;;;4.10;99.90;;;;;;5024543;28;20539;-71
2020/12/26 07:26:52;;;;;;;16.00;6.03;;;4.10;99.90;;;;;;5019817;28;20435;-71
2020/12/26 07:29:28;;;;;;;19.40;4.17;;;4.20;99.90;;;;;;5017751;28;20486;-72
2020/12/26 07:31:57;;;;;;;4.83;4.27;;;4.20;99.90;;;;;;5019697;28;21009;-71
2020/12/26 07:34:40;;;;;;;10.67;5.83;;;4.20;99.90;;;;;;5018420;28;20514;-71
2020/12/26 07:37:07;;;;;;;7.00;6.30;;;4.20;99.90;;;;;;5016132;28;20449;-72
2020/12/26 07:39:34;;;;;;;4.77;4.10;;;4.10;99.90;;;;;;5018213;28;20473;-70
2020/12/26 07:42:02;;;;;;;11.37;6.90;;;4.20;99.90;;;;;;5013778;28;20997;-71
2020/12/26 07:44:29;;;;;;;11.37;6.63;;;4.30;99.90;;;;;;5022190;28;20465;-71
2020/12/26 07:46:56;;;;;;;9.33;6.63;;;4.30;99.90;;;;;;5014541;28;20520;-72
2020/12/26 07:49:26;;;;;;;8.37;7.00;;;4.20;99.90;;;;;;5012948;28;23778;-72
2020/12/26 07:52:06;;;;;;;11.83;6.80;;;4.30;99.90;;;;;;5016823;28;20512;-72
2020/12/26 07:54:35;;;;;;;20.67;8.60;;;4.30;99.90;;;;;;5021483;28;20518;-70
2020/12/26 07:57:03;;;;;;;4.63;4.20;;;4.20;99.90;;;;;;5013719;28;20446;-72
2020/12/26 07:59:30;;;;;;;9.70;7.93;;;4.20;99.90;;;;;;5014799;28;21129;-72
2020/12/26 08:01:57;;;;;;;4.87;3.60;;;4.20;99.90;;;;;;5022161;28;20484;-72
2020/12/26 08:04:24;;;;;;;10.80;8.17;;;4.30;99.90;;;;;;5018295;28;20462;-72
2020/12/26 08:06:51;;;;;;;8.37;5.57;;;4.30;99.90;;;;;;5017738;28;20990;-71
2020/12/26 08:09:18;;;;;;;5.17;4.67;;;4.20;99.90;;;;;;5017185;28;20522;-72
2020/12/26 08:11:46;;;;;;;8.47;6.87;;;4.30;99.90;;;;;;5017512;28;20510;-71
2020/12/26 08:14:18;;;;;;;4.83;4.43;;;4.40;99.90;;;;;;5020299;28;20435;-72
2020/12/26 08:16:45;;;;;;;4.53;4.13;;;4.30;99.90;;;;;;5016625;28;20449;-72
2020/12/26 08:19:14;;;;;;;16.47;5.50;;;4.30;99.90;;;;;;5017228;28;20532;-72
2020/12/26 08:21:41;;;;;;;9.40;6.97;;;4.30;99.90;;;;;;5021983;28;20451;-72
2020/12/26 08:24:08;;;;;;;5.40;4.90;;;4.30;99.90;;;;;;5018842;28;20515;-71
2020/12/26 08:26:35;;;;;;;7.57;4.87;;;4.40;99.90;;;;;;5014622;28;20458;-70
2020/12/26 08:29:04;;;;;;;10.50;6.10;;;4.50;99.90;;;;;;5013598;28;20522;-72
2020/12/26 08:31:33;;;;;;;6.17;5.40;;;4.50;99.90;;;;;;5013705;28;20472;-69
2020/12/26 08:34:07;;;;;;;7.27;5.17;;;4.40;99.90;;;;;;5021013;28;20464;-71
2020/12/26 08:36:39;;;;;;;9.37;6.43;;;4.40;99.90;;;;;;5019032;28;20467;-71
2020/12/26 08:39:09;;;;;;;6.93;4.53;;;4.30;99.90;;;;;;5015403;28;20457;-70
2020/12/26 08:41:40;;;;;;;9.80;5.43;;;4.20;99.90;;;;;;5013441;28;20467;-71
2020/12/26 08:44:10;;;;;;;11.17;7.67;;;4.20;99.90;;;;;;5018763;28;20990;-69
2020/12/26 08:46:42;;;;;;;9.17;6.40;;;4.40;99.90;;;;;;5013903;28;20879;-70
2020/12/26 08:49:09;;;;;;;11.30;8.30;;;4.60;99.90;;;;;;5007076;28;20463;-71
2020/12/26 08:51:41;;;;;;;13.27;8.33;;;4.70;99.90;;;;;;5015645;28;20483;-72
2020/12/26 08:54:17;;;;;;;4.67;3.53;;;4.60;99.90;;;;;;5013945;28;20475;-74
2020/12/26 08:56:44;;;;;;;9.30;7.00;;;4.50;99.90;;;;;;5017547;28;20438;-74
2020/12/26 08:59:10;;;;;;;12.93;7.27;;;4.40;99.90;;;;;;5020019;28;20487;-69
2020/12/26 09:01:37;;;;;;;12.70;8.23;;;4.40;99.90;;;;;;5014644;28;20486;-72
2020/12/26 09:04:14;;;;;;;10.83;7.93;;;4.50;99.90;;;;;;5015514;28;20599;-72
2020/12/26 09:06:42;;;;;;;7.53;6.77;;;4.60;99.90;;;;;;5018981;28;20593;-72
2020/12/26 09:09:16;;;;;;;7.80;5.53;;;4.70;99.90;;;;;;5018847;28;20438;-69
2020/12/26 09:11:43;;;;;;;4.50;3.87;;;4.70;99.90;;;;;;5014233;28;20571;-71
2020/12/26 09:14:18;;;;;;;4.67;4.30;;;4.60;99.90;;;;;;5011515;28;20469;-72
2020/12/26 09:16:47;;;;;;;13.83;8.07;;;4.50;99.90;;;;;;5015274;28;20434;-73
2020/12/26 09:19:14;;;;;;;7.17;5.47;;;4.50;99.90;;;;;;5015936;28;20467;-72
2020/12/26 09:21:41;;;;;;;9.77;6.50;;;4.40;99.90;;;;;;5012239;28;20546;-72
2020/12/26 09:24:17;;;;;;;9.70;6.10;;;4.50;99.90;;;;;;5013644;28;20510;-73
2020/12/26 09:26:47;;;;;;;6.70;5.77;;;4.60;99.90;;;;;;5011610;28;20445;-73
2020/12/26 09:29:24;;;;;;;5.53;4.53;;;4.60;99.90;;;;;;5012737;28;20548;-72
2020/12/26 09:31:52;;;;;;;5.87;3.93;;;4.60;99.90;;;;;;5012431;28;20489;-72
2020/12/26 09:34:22;;;;;;;9.23;6.43;;;4.60;99.90;;;;;;5011609;28;20532;-72
2020/12/26 09:37:03;;;;;;;4.63;4.17;;;4.60;99.90;;;;;;5011501;28;20202;-71
2020/12/26 09:39:30;;;;;;;11.37;5.53;;;4.80;99.90;;;;;;5011097;28;21812;-72
2020/12/26 09:41:56;;;;;;;4.37;3.10;;;4.80;99.90;;;;;;5016488;28;20449;-74
2020/12/26 09:44:25;;;;;;;12.57;6.10;;;4.80;99.90;;;;;;5012560;28;20527;-74
2020/12/26 09:46:57;;;;;;;5.20;4.30;;;5.10;99.90;;;;;;5014252;28;20452;-72
2020/12/26 09:49:25;;;;;;;8.70;3.87;;;5.40;99.90;;;;;;5008507;28;20910;-72
2020/12/26 09:51:51;;;;;;;5.07;4.47;;;5.40;99.90;;;;;;5011422;28;20918;-72
2020/12/26 09:54:18;;;;;;;4.60;1.90;;;5.40;99.90;;;;;;5019843;28;20461;-72
2020/12/26 09:56:45;;;;;;;3.50;3.03;;;5.20;99.90;;;;;;5008201;28;20534;-73
2020/12/26 09:59:11;;;;;;;3.13;2.60;;;5.10;99.90;;;;;;5017744;28;20878;-72
2020/12/26 10:01:39;;;;;;;2.90;2.70;;;5.10;99.90;;;;;;5013808;28;20999;-71
2020/12/26 10:04:06;;;;;;;5.43;4.77;;;4.90;99.90;;;;;;5012589;28;20470;-73
2020/12/26 10:06:34;;;;;;;9.37;5.67;;;4.90;99.90;;;;;;5022241;28;20484;-71
2020/12/26 10:09:02;;;;;;;26.97;4.90;;;5.00;99.90;;;;;;5013652;28;20520;-71
2020/12/26 10:11:32;;;;;;;7.73;3.90;;;5.00;99.90;;;;;;5016105;28;20566;-73
2020/12/26 10:13:59;;;;;;;5.03;2.30;;;4.90;99.90;;;;;;5017441;28;20978;-73
2020/12/26 10:16:25;;;;;;;2.33;2.13;;;4.90;99.90;;;;;;5010762;28;20465;-71
2020/12/26 10:18:52;;;;;;;6.67;4.10;;;4.80;99.90;;;;;;5017514;28;20427;-73
2020/12/26 10:21:19;;;;;;;6.83;5.40;;;4.90;99.90;;;;;;5020054;28;20516;-71
2020/12/26 10:23:49;;;;;;;6.20;3.10;;;5.00;99.90;;;;;;5012537;28;20893;-71
2020/12/26 10:26:16;;;;;;;5.93;4.10;;;5.10;99.90;;;;;;5008833;28;20452;-72
2020/12/26 10:28:42;;;;;;;1.90;1.67;;;5.10;99.90;;;;;;5014624;28;20499;-73
2020/12/26 10:31:09;;;;;;;3.43;2.40;;;5.20;99.90;;;;;;5008628;28;20435;-72
2020/12/26 10:33:36;;;;;;;4.10;3.17;;;5.20;99.90;;;;;;5001729;28;20839;-72
2020/12/26 10:36:03;;;;;;;4.90;4.50;;;5.10;99.90;;;;;;5011766;28;20519;-73
2020/12/26 10:38:29;;;;;;;5.97;4.03;;;5.10;99.90;;;;;;5011633;28;20463;-71
2020/12/26 10:40:57;;;;;;;10.13;4.90;;;5.00;99.90;;;;;;5011874;28;20454;-71
2020/12/26 10:43:24;;;;;;;4.53;4.23;;;4.90;99.90;;;;;;5019504;28;20433;-72
2020/12/26 10:45:51;;;;;;;3.33;2.37;;;5.00;99.90;;;;;;5014742;28;21170;-72
2020/12/26 10:48:17;;;;;;;6.40;3.90;;;5.10;99.90;;;;;;5013453;28;20481;-73
2020/12/26 10:50:46;;;;;;;3.63;2.60;;;5.20;99.90;;;;;;5018604;28;21300;-73
2020/12/26 10:53:12;;;;;;;3.23;2.90;;;5.30;99.90;;;;;;5023343;28;20477;-72
2020/12/26 10:55:40;;;;;;;5.30;4.30;;;5.20;99.90;;;;;;5016597;28;20471;-73
2020/12/26 10:58:08;;;;;;;5.90;4.20;;;5.20;99.90;;;;;;5011473;28;20540;-72
2020/12/26 11:00:37;;;;;;;9.03;5.17;;;5.40;99.90;;;;;;5014568;28;21061;-73
2020/12/26 11:03:04;;;;;;;3.83;3.00;;;5.50;99.90;;;;;;5015042;28;20458;-72
2020/12/26 11:05:31;;;;;;;3.20;2.83;;;5.50;99.90;;;;;;5003334;28;20453;-73
2020/12/26 11:07:58;;;;;;;4.67;3.77;;;5.60;99.90;;;;;;5016215;28;20471;-71
2020/12/26 11:10:24;;;;;;;7.50;4.50;;;5.60;99.90;;;;;;5020609;28;20431;-71
2020/12/26 11:12:51;;;;;;;5.73;4.10;;;5.80;99.90;;;;;;5017262;28;20486;-73
2020/12/26 11:15:18;;;;;;;4.10;3.43;;;5.80;99.90;;;;;;5012026;28;20432;-73
2020/12/26 11:17:45;;;;;;;9.23;6.13;;;5.70;99.90;;;;;;5011063;28;20465;-71
2020/12/26 11:20:12;;;;;;;11.00;5.00;;;5.80;99.90;;;;;;5023884;28;20479;-73
2020/12/26 11:22:39;;;;;;;4.43;4.00;;;5.90;99.90;;;;;;5022098;28;20483;-72
2020/12/26 11:25:06;;;;;;;7.07;3.50;;;5.90;99.90;;;;;;5021744;28;20434;-73
2020/12/26 11:27:32;;;;;;;6.07;4.43;;;6.00;99.90;;;;;;5001867;28;20467;-73
2020/12/26 11:30:00;;;;;;;5.37;2.47;;;6.10;99.90;;;;;;5000701;28;20887;-73
2020/12/26 11:32:28;;;;;;;4.67;3.00;;;6.10;99.90;;;;;;5028770;28;20479;-73
2020/12/26 11:34:54;;;;;;;5.80;3.27;;;6.10;99.90;;;;;;5015222;28;20461;-71
2020/12/26 11:37:21;;;;;;;2.53;2.33;;;6.10;99.90;;;;;;5013967;28;20456;-71
2020/12/26 11:39:50;;;;;;;4.63;2.83;;;6.10;99.90;;;;;;5015876;28;20471;-72
2020/12/26 11:42:16;;;;;;;7.40;3.77;;;6.10;99.90;;;;;;5007782;28;20479;-71
2020/12/26 11:44:43;;;;;;;10.50;5.70;;;6.20;99.90;;;;;;5006066;28;20498;-72
2020/12/26 11:47:10;;;;;;;3.33;2.77;;;6.00;99.90;;;;;;5011965;28;20470;-72
2020/12/26 11:49:38;;;;;;;10.23;5.80;;;6.00;99.90;;;;;;5002740;28;20437;-72
2020/12/26 11:52:04;;;;;;;9.50;3.20;;;6.10;99.90;;;;;;5024548;28;20580;-70
2020/12/26 11:54:31;;;;;;;6.07;5.00;;;6.30;99.90;;;;;;5025892;28;20485;-72
2020/12/26 11:56:57;;;;;;;5.40;4.07;;;6.20;99.90;;;;;;5022123;28;20456;-73
2020/12/26 11:59:24;;;;;;;3.20;2.07;;;6.20;99.90;;;;;;5014481;28;20461;-71
2020/12/26 12:01:54;;;;;;;3.57;2.60;;;5.90;99.90;;;;;;5016418;28;20474;-70
2020/12/26 12:04:21;;;;;;;5.43;3.83;;;6.00;99.90;;;;;;5010656;28;20974;-70
2020/12/26 12:06:49;;;;;;;3.50;2.87;;;6.20;99.90;;;;;;5019377;28;20522;-70
2020/12/26 12:09:16;;;;;;;4.30;1.97;;;6.10;99.90;;;;;;5021835;28;23460;-72
2020/12/26 12:11:43;;;;;;;18.30;5.57;;;6.00;99.90;;;;;;5016119;28;20476;-71
2020/12/26 12:14:09;;;;;;;13.13;3.20;;;6.10;99.90;;;;;;5022920;28;20472;-70
2020/12/26 12:16:36;;;;;;;3.27;2.73;;;5.90;99.90;;;;;;5022125;28;20464;-71
2020/12/26 12:19:03;;;;;;;5.23;3.00;;;5.90;99.90;;;;;;5020300;28;20471;-71
2020/12/26 12:21:30;;;;;;;2.33;1.80;;;5.80;99.90;;;;;;5020214;28;20484;-72
2020/12/26 12:23:57;;;;;;;9.30;3.33;;;5.90;99.90;;;;;;5024499;28;20567;-71
2020/12/26 12:26:25;;;;;;;2.50;1.93;;;5.90;99.90;;;;;;5018692;28;20522;-71
2020/12/26 12:28:54;;;;;;;1.70;1.60;;;5.90;99.90;;;;;;5018817;28;20507;-71
2020/12/26 12:31:21;;;;;;;1.30;1.10;;;5.90;99.90;;;;;;4996038;28;20549;-72
2020/12/26 12:33:48;;;;;;;2.70;1.93;;;5.90;99.90;;;;;;5014559;28;20498;-71
2020/12/26 12:36:15;;;;;;;2.80;1.30;;;6.10;99.90;;;;;;5003676;28;20458;-72
2020/12/26 12:38:42;;;;;;;3.50;1.70;;;6.10;99.90;;;;;;5017696;28;20491;-70
2020/12/26 12:41:09;;;;;;;1.63;1.43;;;5.90;99.90;;;;;;5017874;28;20597;-71
2020/12/26 12:43:36;;;;;;;4.80;2.00;;;6.00;99.90;;;;;;5011961;28;20604;-71
2020/12/26 12:46:06;;;;;;;2.60;2.10;;;5.90;99.90;;;;;;5020018;28;20818;-69
2020/12/26 12:48:33;;;;;;;1.70;1.47;;;6.00;99.90;;;;;;5013757;28;20470;-72
2020/12/26 12:50:59;;;;;;;2.50;2.10;;;6.30;99.90;;;;;;5013941;28;20486;-71
2020/12/26 12:53:26;;;;;;;4.70;2.43;;;6.30;99.90;;;;;;5022280;28;20483;-74
2020/12/26 12:55:53;;;;;;;2.50;1.50;;;6.30;99.90;;;;;;5019303;28;20446;-72
2020/12/26 12:58:20;;;;;;;1.43;1.33;;;6.20;99.90;;;;;;5016528;28;20432;-71
2020/12/26 13:00:47;;;;;;;2.83;1.80;;;6.00;99.90;;;;;;5024053;28;20512;-73